<?xml version="1.0" encoding="UTF-8" standalone="no" ?>
<gpx xmlns="http://www.topografix.com/GPX/1/1" xmlns:xsi="http://www.w3.org/2001/XMLSchema-instance" xsi:schemaLocation="http://www.topografix.com/GPX/1/1 http://www.topografix.com/GPX/1/1/gpx.xsd" version="1.1" creator="VisuGPX - https://www.visugpx.com">
  <metadata>
    <name>Pas Aronde</name>
    <desc><![CDATA[cf
http://www.skitour.fr/sorties/rochers-du-lorzier,46385.html#sortie
]]></desc>
  </metadata>
  <trk>
    <name><![CDATA[ACTIVE LOG- 14 FEV 2013 10-00]]></name>
    <trkseg>
      <trkpt lat="45.32623" lon="5.67095">
        <ele>769.19</ele>
        <time>2013-02-14T09:00:13Z</time>
      </trkpt>
      <trkpt lat="45.32629" lon="5.67093">
        <ele>770.15</ele>
        <time>2013-02-14T09:01:25Z</time>
      </trkpt>
      <trkpt lat="45.32628" lon="5.67094">
        <ele>770.63</ele>
        <time>2013-02-14T09:01:48Z</time>
      </trkpt>
      <trkpt lat="45.32628" lon="5.67097">
        <ele>771.11</ele>
        <time>2013-02-14T09:02:32Z</time>
      </trkpt>
      <trkpt lat="45.32629" lon="5.67098">
        <ele>770.63</ele>
        <time>2013-02-14T09:03:03Z</time>
      </trkpt>
      <trkpt lat="45.32629" lon="5.67098">
        <ele>770.15</ele>
        <time>2013-02-14T09:03:20Z</time>
      </trkpt>
      <trkpt lat="45.32629" lon="5.67097">
        <ele>770.63</ele>
        <time>2013-02-14T09:04:06Z</time>
      </trkpt>
      <trkpt lat="45.32628" lon="5.67098">
        <ele>770.15</ele>
        <time>2013-02-14T09:04:35Z</time>
      </trkpt>
      <trkpt lat="45.32628" lon="5.67099">
        <ele>770.63</ele>
        <time>2013-02-14T09:04:50Z</time>
      </trkpt>
      <trkpt lat="45.3263" lon="5.67102">
        <ele>771.11</ele>
        <time>2013-02-14T09:05:05Z</time>
      </trkpt>
      <trkpt lat="45.32631" lon="5.67105">
        <ele>771.11</ele>
        <time>2013-02-14T09:05:26Z</time>
      </trkpt>
      <trkpt lat="45.32632" lon="5.67102">
        <ele>770.63</ele>
        <time>2013-02-14T09:05:42Z</time>
      </trkpt>
      <trkpt lat="45.3263" lon="5.67105">
        <ele>770.63</ele>
        <time>2013-02-14T09:06:04Z</time>
      </trkpt>
      <trkpt lat="45.32627" lon="5.67098">
        <ele>770.63</ele>
        <time>2013-02-14T09:06:28Z</time>
      </trkpt>
      <trkpt lat="45.32627" lon="5.6709">
        <ele>771.6</ele>
        <time>2013-02-14T09:06:46Z</time>
      </trkpt>
      <trkpt lat="45.32628" lon="5.67076">
        <ele>771.11</ele>
        <time>2013-02-14T09:07:08Z</time>
      </trkpt>
      <trkpt lat="45.32631" lon="5.67089">
        <ele>771.11</ele>
        <time>2013-02-14T09:07:25Z</time>
      </trkpt>
      <trkpt lat="45.3263" lon="5.67091">
        <ele>771.11</ele>
        <time>2013-02-14T09:07:46Z</time>
      </trkpt>
      <trkpt lat="45.32629" lon="5.67096">
        <ele>771.6</ele>
        <time>2013-02-14T09:08:07Z</time>
      </trkpt>
      <trkpt lat="45.32628" lon="5.67096">
        <ele>771.6</ele>
        <time>2013-02-14T09:08:30Z</time>
      </trkpt>
      <trkpt lat="45.32627" lon="5.67095">
        <ele>772.08</ele>
        <time>2013-02-14T09:08:50Z</time>
      </trkpt>
      <trkpt lat="45.32625" lon="5.67091">
        <ele>772.56</ele>
        <time>2013-02-14T09:09:08Z</time>
      </trkpt>
      <trkpt lat="45.32625" lon="5.6709">
        <ele>772.56</ele>
        <time>2013-02-14T09:09:27Z</time>
      </trkpt>
      <trkpt lat="45.32624" lon="5.67089">
        <ele>773.04</ele>
        <time>2013-02-14T09:09:46Z</time>
      </trkpt>
      <trkpt lat="45.32626" lon="5.67086">
        <ele>772.56</ele>
        <time>2013-02-14T09:10:06Z</time>
      </trkpt>
      <trkpt lat="45.3263" lon="5.67091">
        <ele>772.56</ele>
        <time>2013-02-14T09:10:17Z</time>
      </trkpt>
      <trkpt lat="45.32628" lon="5.67093">
        <ele>772.56</ele>
        <time>2013-02-14T09:10:47Z</time>
      </trkpt>
      <trkpt lat="45.32628" lon="5.67092">
        <ele>773.04</ele>
        <time>2013-02-14T09:11:03Z</time>
      </trkpt>
      <trkpt lat="45.32627" lon="5.67093">
        <ele>772.56</ele>
        <time>2013-02-14T09:11:07Z</time>
      </trkpt>
      <trkpt lat="45.32618" lon="5.6711">
        <ele>772.08</ele>
        <time>2013-02-14T09:11:22Z</time>
      </trkpt>
      <trkpt lat="45.32616" lon="5.67111">
        <ele>772.08</ele>
        <time>2013-02-14T09:11:24Z</time>
      </trkpt>
      <trkpt lat="45.32598" lon="5.67125">
        <ele>771.6</ele>
        <time>2013-02-14T09:11:37Z</time>
      </trkpt>
      <trkpt lat="45.32574" lon="5.6713">
        <ele>770.63</ele>
        <time>2013-02-14T09:11:48Z</time>
      </trkpt>
      <trkpt lat="45.32543" lon="5.67131">
        <ele>769.19</ele>
        <time>2013-02-14T09:12:02Z</time>
      </trkpt>
      <trkpt lat="45.32516" lon="5.67131">
        <ele>767.75</ele>
        <time>2013-02-14T09:12:13Z</time>
      </trkpt>
      <trkpt lat="45.32494" lon="5.67131">
        <ele>767.27</ele>
        <time>2013-02-14T09:12:23Z</time>
      </trkpt>
      <trkpt lat="45.32477" lon="5.67129">
        <ele>766.79</ele>
        <time>2013-02-14T09:12:33Z</time>
      </trkpt>
      <trkpt lat="45.32464" lon="5.67124">
        <ele>766.31</ele>
        <time>2013-02-14T09:12:43Z</time>
      </trkpt>
      <trkpt lat="45.3245" lon="5.67124">
        <ele>766.31</ele>
        <time>2013-02-14T09:12:55Z</time>
      </trkpt>
      <trkpt lat="45.32433" lon="5.67123">
        <ele>766.31</ele>
        <time>2013-02-14T09:13:09Z</time>
      </trkpt>
      <trkpt lat="45.32415" lon="5.67117">
        <ele>766.31</ele>
        <time>2013-02-14T09:13:22Z</time>
      </trkpt>
      <trkpt lat="45.32392" lon="5.67106">
        <ele>766.79</ele>
        <time>2013-02-14T09:13:38Z</time>
      </trkpt>
      <trkpt lat="45.3238" lon="5.67097">
        <ele>767.27</ele>
        <time>2013-02-14T09:13:48Z</time>
      </trkpt>
      <trkpt lat="45.32362" lon="5.67094">
        <ele>768.23</ele>
        <time>2013-02-14T09:14:04Z</time>
      </trkpt>
      <trkpt lat="45.32343" lon="5.6709">
        <ele>769.67</ele>
        <time>2013-02-14T09:14:23Z</time>
      </trkpt>
      <trkpt lat="45.32329" lon="5.67092">
        <ele>771.11</ele>
        <time>2013-02-14T09:14:39Z</time>
      </trkpt>
      <trkpt lat="45.32322" lon="5.67091">
        <ele>772.56</ele>
        <time>2013-02-14T09:14:53Z</time>
      </trkpt>
      <trkpt lat="45.32303" lon="5.6709">
        <ele>774.96</ele>
        <time>2013-02-14T09:15:20Z</time>
      </trkpt>
      <trkpt lat="45.32299" lon="5.67089">
        <ele>775.44</ele>
        <time>2013-02-14T09:15:24Z</time>
      </trkpt>
      <trkpt lat="45.3228" lon="5.67075">
        <ele>777.84</ele>
        <time>2013-02-14T09:15:44Z</time>
      </trkpt>
      <trkpt lat="45.32274" lon="5.67065">
        <ele>778.81</ele>
        <time>2013-02-14T09:15:55Z</time>
      </trkpt>
      <trkpt lat="45.3226" lon="5.67048">
        <ele>780.25</ele>
        <time>2013-02-14T09:16:11Z</time>
      </trkpt>
      <trkpt lat="45.32237" lon="5.67031">
        <ele>782.17</ele>
        <time>2013-02-14T09:16:29Z</time>
      </trkpt>
      <trkpt lat="45.32216" lon="5.67022">
        <ele>783.13</ele>
        <time>2013-02-14T09:16:52Z</time>
      </trkpt>
      <trkpt lat="45.32201" lon="5.67013">
        <ele>784.57</ele>
        <time>2013-02-14T09:17:08Z</time>
      </trkpt>
      <trkpt lat="45.32192" lon="5.67001">
        <ele>785.05</ele>
        <time>2013-02-14T09:17:20Z</time>
      </trkpt>
      <trkpt lat="45.32179" lon="5.66989">
        <ele>784.57</ele>
        <time>2013-02-14T09:17:36Z</time>
      </trkpt>
      <trkpt lat="45.32169" lon="5.66977">
        <ele>783.61</ele>
        <time>2013-02-14T09:17:47Z</time>
      </trkpt>
      <trkpt lat="45.32158" lon="5.6697">
        <ele>783.13</ele>
        <time>2013-02-14T09:17:58Z</time>
      </trkpt>
      <trkpt lat="45.32144" lon="5.66959">
        <ele>783.13</ele>
        <time>2013-02-14T09:18:12Z</time>
      </trkpt>
      <trkpt lat="45.32138" lon="5.66952">
        <ele>783.13</ele>
        <time>2013-02-14T09:18:18Z</time>
      </trkpt>
      <trkpt lat="45.32119" lon="5.66933">
        <ele>784.09</ele>
        <time>2013-02-14T09:18:41Z</time>
      </trkpt>
      <trkpt lat="45.32107" lon="5.66928">
        <ele>785.05</ele>
        <time>2013-02-14T09:18:55Z</time>
      </trkpt>
      <trkpt lat="45.32095" lon="5.66917">
        <ele>786.02</ele>
        <time>2013-02-14T09:19:11Z</time>
      </trkpt>
      <trkpt lat="45.32091" lon="5.66913">
        <ele>786.98</ele>
        <time>2013-02-14T09:19:24Z</time>
      </trkpt>
      <trkpt lat="45.32092" lon="5.66915">
        <ele>786.98</ele>
        <time>2013-02-14T09:19:42Z</time>
      </trkpt>
      <trkpt lat="45.32093" lon="5.66915">
        <ele>787.46</ele>
        <time>2013-02-14T09:20:34Z</time>
      </trkpt>
      <trkpt lat="45.32083" lon="5.66906">
        <ele>787.94</ele>
        <time>2013-02-14T09:21:20Z</time>
      </trkpt>
      <trkpt lat="45.3208" lon="5.66903">
        <ele>788.42</ele>
        <time>2013-02-14T09:21:23Z</time>
      </trkpt>
      <trkpt lat="45.32064" lon="5.66891">
        <ele>787.94</ele>
        <time>2013-02-14T09:21:40Z</time>
      </trkpt>
      <trkpt lat="45.32047" lon="5.66884">
        <ele>786.98</ele>
        <time>2013-02-14T09:21:55Z</time>
      </trkpt>
      <trkpt lat="45.32042" lon="5.66883">
        <ele>786.5</ele>
        <time>2013-02-14T09:22:01Z</time>
      </trkpt>
      <trkpt lat="45.32024" lon="5.66892">
        <ele>786.02</ele>
        <time>2013-02-14T09:22:20Z</time>
      </trkpt>
      <trkpt lat="45.32007" lon="5.66901">
        <ele>786.02</ele>
        <time>2013-02-14T09:22:37Z</time>
      </trkpt>
      <trkpt lat="45.31997" lon="5.66907">
        <ele>786.5</ele>
        <time>2013-02-14T09:22:48Z</time>
      </trkpt>
      <trkpt lat="45.31992" lon="5.66909">
        <ele>786.5</ele>
        <time>2013-02-14T09:22:54Z</time>
      </trkpt>
      <trkpt lat="45.31972" lon="5.66917">
        <ele>787.46</ele>
        <time>2013-02-14T09:23:12Z</time>
      </trkpt>
      <trkpt lat="45.31958" lon="5.66927">
        <ele>788.42</ele>
        <time>2013-02-14T09:23:27Z</time>
      </trkpt>
      <trkpt lat="45.31944" lon="5.66936">
        <ele>788.9</ele>
        <time>2013-02-14T09:23:42Z</time>
      </trkpt>
      <trkpt lat="45.31933" lon="5.66945">
        <ele>790.34</ele>
        <time>2013-02-14T09:23:56Z</time>
      </trkpt>
      <trkpt lat="45.31922" lon="5.66955">
        <ele>791.3</ele>
        <time>2013-02-14T09:24:09Z</time>
      </trkpt>
      <trkpt lat="45.31911" lon="5.66967">
        <ele>793.22</ele>
        <time>2013-02-14T09:24:24Z</time>
      </trkpt>
      <trkpt lat="45.3191" lon="5.66968">
        <ele>793.22</ele>
        <time>2013-02-14T09:24:25Z</time>
      </trkpt>
      <trkpt lat="45.31905" lon="5.66983">
        <ele>794.67</ele>
        <time>2013-02-14T09:24:38Z</time>
      </trkpt>
      <trkpt lat="45.31904" lon="5.66989">
        <ele>795.15</ele>
        <time>2013-02-14T09:24:58Z</time>
      </trkpt>
      <trkpt lat="45.31905" lon="5.66989">
        <ele>795.63</ele>
        <time>2013-02-14T09:26:14Z</time>
      </trkpt>
      <trkpt lat="45.31907" lon="5.66965">
        <ele>793.71</ele>
        <time>2013-02-14T09:26:28Z</time>
      </trkpt>
      <trkpt lat="45.31915" lon="5.66961">
        <ele>795.15</ele>
        <time>2013-02-14T09:26:42Z</time>
      </trkpt>
      <trkpt lat="45.31915" lon="5.66961">
        <ele>795.15</ele>
        <time>2013-02-14T09:26:43Z</time>
      </trkpt>
      <trkpt lat="45.3192" lon="5.6697">
        <ele>797.55</ele>
        <time>2013-02-14T09:26:55Z</time>
      </trkpt>
      <trkpt lat="45.3192" lon="5.66972">
        <ele>797.55</ele>
        <time>2013-02-14T09:26:57Z</time>
      </trkpt>
      <trkpt lat="45.3192" lon="5.66985">
        <ele>799.47</ele>
        <time>2013-02-14T09:27:10Z</time>
      </trkpt>
      <trkpt lat="45.31919" lon="5.66999">
        <ele>802.36</ele>
        <time>2013-02-14T09:27:25Z</time>
      </trkpt>
      <trkpt lat="45.31918" lon="5.6701">
        <ele>804.76</ele>
        <time>2013-02-14T09:27:37Z</time>
      </trkpt>
      <trkpt lat="45.31917" lon="5.67019">
        <ele>806.2</ele>
        <time>2013-02-14T09:27:49Z</time>
      </trkpt>
      <trkpt lat="45.31919" lon="5.67027">
        <ele>808.13</ele>
        <time>2013-02-14T09:28:07Z</time>
      </trkpt>
      <trkpt lat="45.31926" lon="5.67033">
        <ele>810.53</ele>
        <time>2013-02-14T09:28:27Z</time>
      </trkpt>
      <trkpt lat="45.31929" lon="5.67038">
        <ele>813.41</ele>
        <time>2013-02-14T09:28:47Z</time>
      </trkpt>
      <trkpt lat="45.31928" lon="5.67044">
        <ele>814.37</ele>
        <time>2013-02-14T09:28:53Z</time>
      </trkpt>
      <trkpt lat="45.31923" lon="5.67057">
        <ele>815.34</ele>
        <time>2013-02-14T09:29:09Z</time>
      </trkpt>
      <trkpt lat="45.31917" lon="5.67064">
        <ele>814.85</ele>
        <time>2013-02-14T09:29:22Z</time>
      </trkpt>
      <trkpt lat="45.31914" lon="5.6707">
        <ele>814.85</ele>
        <time>2013-02-14T09:29:39Z</time>
      </trkpt>
      <trkpt lat="45.31918" lon="5.6707">
        <ele>814.37</ele>
        <time>2013-02-14T09:30:22Z</time>
      </trkpt>
      <trkpt lat="45.319" lon="5.67088">
        <ele>811.97</ele>
        <time>2013-02-14T09:30:33Z</time>
      </trkpt>
      <trkpt lat="45.31895" lon="5.67088">
        <ele>808.61</ele>
        <time>2013-02-14T09:30:36Z</time>
      </trkpt>
      <trkpt lat="45.31891" lon="5.67086">
        <ele>806.2</ele>
        <time>2013-02-14T09:30:41Z</time>
      </trkpt>
      <trkpt lat="45.31888" lon="5.67081">
        <ele>804.76</ele>
        <time>2013-02-14T09:30:47Z</time>
      </trkpt>
      <trkpt lat="45.31882" lon="5.67078">
        <ele>801.4</ele>
        <time>2013-02-14T09:30:57Z</time>
      </trkpt>
      <trkpt lat="45.31881" lon="5.6708">
        <ele>801.88</ele>
        <time>2013-02-14T09:30:59Z</time>
      </trkpt>
      <trkpt lat="45.3188" lon="5.6708">
        <ele>801.88</ele>
        <time>2013-02-14T09:31:01Z</time>
      </trkpt>
      <trkpt lat="45.31869" lon="5.67097">
        <ele>804.28</ele>
        <time>2013-02-14T09:31:21Z</time>
      </trkpt>
      <trkpt lat="45.31865" lon="5.67105">
        <ele>806.2</ele>
        <time>2013-02-14T09:31:33Z</time>
      </trkpt>
      <trkpt lat="45.31858" lon="5.67115">
        <ele>806.68</ele>
        <time>2013-02-14T09:32:15Z</time>
      </trkpt>
      <trkpt lat="45.31851" lon="5.67125">
        <ele>809.09</ele>
        <time>2013-02-14T09:32:40Z</time>
      </trkpt>
      <trkpt lat="45.31848" lon="5.67127">
        <ele>809.57</ele>
        <time>2013-02-14T09:32:44Z</time>
      </trkpt>
      <trkpt lat="45.31836" lon="5.67146">
        <ele>811.97</ele>
        <time>2013-02-14T09:33:03Z</time>
      </trkpt>
      <trkpt lat="45.31829" lon="5.67154">
        <ele>811.97</ele>
        <time>2013-02-14T09:33:17Z</time>
      </trkpt>
      <trkpt lat="45.31829" lon="5.67155">
        <ele>811.49</ele>
        <time>2013-02-14T09:34:35Z</time>
      </trkpt>
      <trkpt lat="45.31815" lon="5.67169">
        <ele>811.01</ele>
        <time>2013-02-14T09:34:50Z</time>
      </trkpt>
      <trkpt lat="45.31808" lon="5.67179">
        <ele>810.53</ele>
        <time>2013-02-14T09:35:01Z</time>
      </trkpt>
      <trkpt lat="45.31805" lon="5.67187">
        <ele>811.49</ele>
        <time>2013-02-14T09:35:11Z</time>
      </trkpt>
      <trkpt lat="45.31805" lon="5.67203">
        <ele>812.45</ele>
        <time>2013-02-14T09:35:24Z</time>
      </trkpt>
      <trkpt lat="45.31805" lon="5.67211">
        <ele>812.93</ele>
        <time>2013-02-14T09:35:32Z</time>
      </trkpt>
      <trkpt lat="45.31802" lon="5.67212">
        <ele>813.41</ele>
        <time>2013-02-14T09:35:53Z</time>
      </trkpt>
      <trkpt lat="45.318" lon="5.67226">
        <ele>815.34</ele>
        <time>2013-02-14T09:36:24Z</time>
      </trkpt>
      <trkpt lat="45.31797" lon="5.67232">
        <ele>816.3</ele>
        <time>2013-02-14T09:36:32Z</time>
      </trkpt>
      <trkpt lat="45.31793" lon="5.67247">
        <ele>818.22</ele>
        <time>2013-02-14T09:36:52Z</time>
      </trkpt>
      <trkpt lat="45.31788" lon="5.67259">
        <ele>819.18</ele>
        <time>2013-02-14T09:37:04Z</time>
      </trkpt>
      <trkpt lat="45.31786" lon="5.67265">
        <ele>820.14</ele>
        <time>2013-02-14T09:37:15Z</time>
      </trkpt>
      <trkpt lat="45.31784" lon="5.67278">
        <ele>823.03</ele>
        <time>2013-02-14T09:37:39Z</time>
      </trkpt>
      <trkpt lat="45.31782" lon="5.67285">
        <ele>823.99</ele>
        <time>2013-02-14T09:37:56Z</time>
      </trkpt>
      <trkpt lat="45.31782" lon="5.67302">
        <ele>826.87</ele>
        <time>2013-02-14T09:38:20Z</time>
      </trkpt>
      <trkpt lat="45.31782" lon="5.6731">
        <ele>829.76</ele>
        <time>2013-02-14T09:38:39Z</time>
      </trkpt>
      <trkpt lat="45.31781" lon="5.67323">
        <ele>832.64</ele>
        <time>2013-02-14T09:39:02Z</time>
      </trkpt>
      <trkpt lat="45.31779" lon="5.67336">
        <ele>835.52</ele>
        <time>2013-02-14T09:39:23Z</time>
      </trkpt>
      <trkpt lat="45.31779" lon="5.67349">
        <ele>838.41</ele>
        <time>2013-02-14T09:39:41Z</time>
      </trkpt>
      <trkpt lat="45.31777" lon="5.67358">
        <ele>841.29</ele>
        <time>2013-02-14T09:39:59Z</time>
      </trkpt>
      <trkpt lat="45.31773" lon="5.67365">
        <ele>844.18</ele>
        <time>2013-02-14T09:40:19Z</time>
      </trkpt>
      <trkpt lat="45.31772" lon="5.67378">
        <ele>846.58</ele>
        <time>2013-02-14T09:40:32Z</time>
      </trkpt>
      <trkpt lat="45.31768" lon="5.67387">
        <ele>847.54</ele>
        <time>2013-02-14T09:40:45Z</time>
      </trkpt>
      <trkpt lat="45.31759" lon="5.67405">
        <ele>848.98</ele>
        <time>2013-02-14T09:41:07Z</time>
      </trkpt>
      <trkpt lat="45.31751" lon="5.67415">
        <ele>850.42</ele>
        <time>2013-02-14T09:41:25Z</time>
      </trkpt>
      <trkpt lat="45.31741" lon="5.67416">
        <ele>853.31</ele>
        <time>2013-02-14T09:41:46Z</time>
      </trkpt>
      <trkpt lat="45.31733" lon="5.67419">
        <ele>856.19</ele>
        <time>2013-02-14T09:42:07Z</time>
      </trkpt>
      <trkpt lat="45.31719" lon="5.67425">
        <ele>858.59</ele>
        <time>2013-02-14T09:42:28Z</time>
      </trkpt>
      <trkpt lat="45.31706" lon="5.67433">
        <ele>860.04</ele>
        <time>2013-02-14T09:42:45Z</time>
      </trkpt>
      <trkpt lat="45.31697" lon="5.67439">
        <ele>860.52</ele>
        <time>2013-02-14T09:42:56Z</time>
      </trkpt>
      <trkpt lat="45.31685" lon="5.67452">
        <ele>862.44</ele>
        <time>2013-02-14T09:43:19Z</time>
      </trkpt>
      <trkpt lat="45.31677" lon="5.67456">
        <ele>864.36</ele>
        <time>2013-02-14T09:43:37Z</time>
      </trkpt>
      <trkpt lat="45.3167" lon="5.67475">
        <ele>867.25</ele>
        <time>2013-02-14T09:44:01Z</time>
      </trkpt>
      <trkpt lat="45.31665" lon="5.6749">
        <ele>870.61</ele>
        <time>2013-02-14T09:44:22Z</time>
      </trkpt>
      <trkpt lat="45.31659" lon="5.675">
        <ele>872.05</ele>
        <time>2013-02-14T09:44:36Z</time>
      </trkpt>
      <trkpt lat="45.31656" lon="5.67511">
        <ele>874.46</ele>
        <time>2013-02-14T09:44:53Z</time>
      </trkpt>
      <trkpt lat="45.31651" lon="5.67526">
        <ele>875.9</ele>
        <time>2013-02-14T09:45:11Z</time>
      </trkpt>
      <trkpt lat="45.31648" lon="5.67546">
        <ele>878.3</ele>
        <time>2013-02-14T09:45:33Z</time>
      </trkpt>
      <trkpt lat="45.31643" lon="5.67563">
        <ele>880.71</ele>
        <time>2013-02-14T09:45:56Z</time>
      </trkpt>
      <trkpt lat="45.3164" lon="5.67561">
        <ele>881.67</ele>
        <time>2013-02-14T09:46:31Z</time>
      </trkpt>
      <trkpt lat="45.31647" lon="5.67556">
        <ele>882.15</ele>
        <time>2013-02-14T09:48:04Z</time>
      </trkpt>
      <trkpt lat="45.31644" lon="5.67567">
        <ele>883.11</ele>
        <time>2013-02-14T09:48:36Z</time>
      </trkpt>
      <trkpt lat="45.31644" lon="5.67583">
        <ele>885.99</ele>
        <time>2013-02-14T09:48:59Z</time>
      </trkpt>
      <trkpt lat="45.31641" lon="5.67591">
        <ele>888.4</ele>
        <time>2013-02-14T09:49:21Z</time>
      </trkpt>
      <trkpt lat="45.31643" lon="5.67601">
        <ele>890.8</ele>
        <time>2013-02-14T09:49:35Z</time>
      </trkpt>
      <trkpt lat="45.31639" lon="5.6761">
        <ele>892.24</ele>
        <time>2013-02-14T09:49:51Z</time>
      </trkpt>
      <trkpt lat="45.31636" lon="5.67614">
        <ele>894.64</ele>
        <time>2013-02-14T09:50:06Z</time>
      </trkpt>
      <trkpt lat="45.31633" lon="5.67617">
        <ele>897.05</ele>
        <time>2013-02-14T09:50:30Z</time>
      </trkpt>
      <trkpt lat="45.31628" lon="5.67617">
        <ele>898.97</ele>
        <time>2013-02-14T09:50:57Z</time>
      </trkpt>
      <trkpt lat="45.31617" lon="5.67614">
        <ele>901.37</ele>
        <time>2013-02-14T09:51:23Z</time>
      </trkpt>
      <trkpt lat="45.31609" lon="5.67618">
        <ele>901.85</ele>
        <time>2013-02-14T09:51:40Z</time>
      </trkpt>
      <trkpt lat="45.31603" lon="5.67622">
        <ele>903.3</ele>
        <time>2013-02-14T09:51:57Z</time>
      </trkpt>
      <trkpt lat="45.31591" lon="5.67626">
        <ele>903.78</ele>
        <time>2013-02-14T09:52:17Z</time>
      </trkpt>
      <trkpt lat="45.31586" lon="5.67631">
        <ele>905.7</ele>
        <time>2013-02-14T09:52:36Z</time>
      </trkpt>
      <trkpt lat="45.31587" lon="5.67632">
        <ele>906.66</ele>
        <time>2013-02-14T09:52:51Z</time>
      </trkpt>
      <trkpt lat="45.31593" lon="5.67634">
        <ele>908.58</ele>
        <time>2013-02-14T09:53:06Z</time>
      </trkpt>
      <trkpt lat="45.31593" lon="5.67642">
        <ele>911.47</ele>
        <time>2013-02-14T09:53:28Z</time>
      </trkpt>
      <trkpt lat="45.31598" lon="5.67652">
        <ele>913.39</ele>
        <time>2013-02-14T09:53:51Z</time>
      </trkpt>
      <trkpt lat="45.31588" lon="5.67657">
        <ele>914.83</ele>
        <time>2013-02-14T09:54:06Z</time>
      </trkpt>
      <trkpt lat="45.31574" lon="5.6766">
        <ele>916.75</ele>
        <time>2013-02-14T09:54:30Z</time>
      </trkpt>
      <trkpt lat="45.3157" lon="5.67664">
        <ele>917.72</ele>
        <time>2013-02-14T09:55:59Z</time>
      </trkpt>
      <trkpt lat="45.3157" lon="5.67669">
        <ele>920.6</ele>
        <time>2013-02-14T09:56:17Z</time>
      </trkpt>
      <trkpt lat="45.31566" lon="5.67668">
        <ele>921.08</ele>
        <time>2013-02-14T09:56:33Z</time>
      </trkpt>
      <trkpt lat="45.31562" lon="5.67672">
        <ele>922.04</ele>
        <time>2013-02-14T09:58:49Z</time>
      </trkpt>
      <trkpt lat="45.31554" lon="5.67675">
        <ele>924.93</ele>
        <time>2013-02-14T09:59:10Z</time>
      </trkpt>
      <trkpt lat="45.31545" lon="5.67679">
        <ele>926.85</ele>
        <time>2013-02-14T09:59:28Z</time>
      </trkpt>
      <trkpt lat="45.31544" lon="5.67686">
        <ele>929.25</ele>
        <time>2013-02-14T09:59:49Z</time>
      </trkpt>
      <trkpt lat="45.31549" lon="5.6769">
        <ele>932.14</ele>
        <time>2013-02-14T10:00:06Z</time>
      </trkpt>
      <trkpt lat="45.31554" lon="5.677">
        <ele>935.02</ele>
        <time>2013-02-14T10:00:22Z</time>
      </trkpt>
      <trkpt lat="45.31559" lon="5.67713">
        <ele>938.38</ele>
        <time>2013-02-14T10:00:39Z</time>
      </trkpt>
      <trkpt lat="45.31553" lon="5.67712">
        <ele>940.79</ele>
        <time>2013-02-14T10:00:59Z</time>
      </trkpt>
      <trkpt lat="45.31543" lon="5.67713">
        <ele>942.23</ele>
        <time>2013-02-14T10:01:16Z</time>
      </trkpt>
      <trkpt lat="45.31537" lon="5.67711">
        <ele>943.67</ele>
        <time>2013-02-14T10:01:35Z</time>
      </trkpt>
      <trkpt lat="45.31539" lon="5.67717">
        <ele>947.04</ele>
        <time>2013-02-14T10:01:59Z</time>
      </trkpt>
      <trkpt lat="45.31532" lon="5.67724">
        <ele>949.44</ele>
        <time>2013-02-14T10:02:22Z</time>
      </trkpt>
      <trkpt lat="45.31524" lon="5.67723">
        <ele>951.84</ele>
        <time>2013-02-14T10:02:43Z</time>
      </trkpt>
      <trkpt lat="45.31521" lon="5.67728">
        <ele>954.73</ele>
        <time>2013-02-14T10:03:17Z</time>
      </trkpt>
      <trkpt lat="45.31516" lon="5.67729">
        <ele>957.13</ele>
        <time>2013-02-14T10:03:43Z</time>
      </trkpt>
      <trkpt lat="45.31516" lon="5.67736">
        <ele>959.05</ele>
        <time>2013-02-14T10:04:13Z</time>
      </trkpt>
      <trkpt lat="45.31517" lon="5.67743">
        <ele>960.49</ele>
        <time>2013-02-14T10:04:30Z</time>
      </trkpt>
      <trkpt lat="45.31524" lon="5.67753">
        <ele>963.38</ele>
        <time>2013-02-14T10:05:23Z</time>
      </trkpt>
      <trkpt lat="45.3153" lon="5.67763">
        <ele>965.3</ele>
        <time>2013-02-14T10:05:46Z</time>
      </trkpt>
      <trkpt lat="45.31536" lon="5.67766">
        <ele>966.26</ele>
        <time>2013-02-14T10:06:03Z</time>
      </trkpt>
      <trkpt lat="45.31538" lon="5.67774">
        <ele>968.67</ele>
        <time>2013-02-14T10:06:25Z</time>
      </trkpt>
      <trkpt lat="45.31531" lon="5.67773">
        <ele>971.07</ele>
        <time>2013-02-14T10:06:48Z</time>
      </trkpt>
      <trkpt lat="45.31534" lon="5.67785">
        <ele>973.95</ele>
        <time>2013-02-14T10:07:18Z</time>
      </trkpt>
      <trkpt lat="45.31531" lon="5.67787">
        <ele>975.88</ele>
        <time>2013-02-14T10:07:39Z</time>
      </trkpt>
      <trkpt lat="45.31526" lon="5.67787">
        <ele>977.8</ele>
        <time>2013-02-14T10:07:58Z</time>
      </trkpt>
      <trkpt lat="45.31517" lon="5.67785">
        <ele>978.28</ele>
        <time>2013-02-14T10:08:17Z</time>
      </trkpt>
      <trkpt lat="45.31513" lon="5.67784">
        <ele>980.2</ele>
        <time>2013-02-14T10:09:29Z</time>
      </trkpt>
      <trkpt lat="45.31514" lon="5.67785">
        <ele>981.16</ele>
        <time>2013-02-14T10:09:45Z</time>
      </trkpt>
      <trkpt lat="45.31514" lon="5.67793">
        <ele>982.6</ele>
        <time>2013-02-14T10:10:03Z</time>
      </trkpt>
      <trkpt lat="45.31519" lon="5.67803">
        <ele>985.01</ele>
        <time>2013-02-14T10:10:24Z</time>
      </trkpt>
      <trkpt lat="45.31523" lon="5.67809">
        <ele>986.45</ele>
        <time>2013-02-14T10:10:42Z</time>
      </trkpt>
      <trkpt lat="45.31519" lon="5.67814">
        <ele>988.85</ele>
        <time>2013-02-14T10:11:00Z</time>
      </trkpt>
      <trkpt lat="45.31517" lon="5.6782">
        <ele>990.78</ele>
        <time>2013-02-14T10:11:17Z</time>
      </trkpt>
      <trkpt lat="45.31514" lon="5.67823">
        <ele>992.22</ele>
        <time>2013-02-14T10:11:31Z</time>
      </trkpt>
      <trkpt lat="45.31506" lon="5.67812">
        <ele>993.18</ele>
        <time>2013-02-14T10:11:57Z</time>
      </trkpt>
      <trkpt lat="45.31507" lon="5.67824">
        <ele>995.1</ele>
        <time>2013-02-14T10:12:27Z</time>
      </trkpt>
      <trkpt lat="45.31511" lon="5.67827">
        <ele>996.54</ele>
        <time>2013-02-14T10:12:42Z</time>
      </trkpt>
      <trkpt lat="45.3152" lon="5.67836">
        <ele>998.95</ele>
        <time>2013-02-14T10:13:07Z</time>
      </trkpt>
      <trkpt lat="45.31514" lon="5.67837">
        <ele>999.91</ele>
        <time>2013-02-14T10:13:36Z</time>
      </trkpt>
      <trkpt lat="45.31513" lon="5.6784">
        <ele>1000.39</ele>
        <time>2013-02-14T10:14:09Z</time>
      </trkpt>
      <trkpt lat="45.31512" lon="5.67838">
        <ele>1000.39</ele>
        <time>2013-02-14T10:14:56Z</time>
      </trkpt>
      <trkpt lat="45.31513" lon="5.67849">
        <ele>999.91</ele>
        <time>2013-02-14T10:15:21Z</time>
      </trkpt>
      <trkpt lat="45.31515" lon="5.67851">
        <ele>999.91</ele>
        <time>2013-02-14T10:15:49Z</time>
      </trkpt>
      <trkpt lat="45.31508" lon="5.67844">
        <ele>1001.83</ele>
        <time>2013-02-14T10:17:49Z</time>
      </trkpt>
      <trkpt lat="45.31511" lon="5.67845">
        <ele>1002.79</ele>
        <time>2013-02-14T10:18:14Z</time>
      </trkpt>
      <trkpt lat="45.31514" lon="5.67851">
        <ele>1004.72</ele>
        <time>2013-02-14T10:18:34Z</time>
      </trkpt>
      <trkpt lat="45.31508" lon="5.67849">
        <ele>1006.64</ele>
        <time>2013-02-14T10:18:58Z</time>
      </trkpt>
      <trkpt lat="45.31509" lon="5.6785">
        <ele>1008.08</ele>
        <time>2013-02-14T10:19:22Z</time>
      </trkpt>
      <trkpt lat="45.31515" lon="5.67858">
        <ele>1010.48</ele>
        <time>2013-02-14T10:19:47Z</time>
      </trkpt>
      <trkpt lat="45.31513" lon="5.67859">
        <ele>1012.41</ele>
        <time>2013-02-14T10:20:08Z</time>
      </trkpt>
      <trkpt lat="45.31515" lon="5.6786">
        <ele>1013.85</ele>
        <time>2013-02-14T10:20:25Z</time>
      </trkpt>
      <trkpt lat="45.31522" lon="5.67869">
        <ele>1016.73</ele>
        <time>2013-02-14T10:20:45Z</time>
      </trkpt>
      <trkpt lat="45.31525" lon="5.67879">
        <ele>1019.13</ele>
        <time>2013-02-14T10:21:03Z</time>
      </trkpt>
      <trkpt lat="45.31531" lon="5.67885">
        <ele>1021.54</ele>
        <time>2013-02-14T10:21:18Z</time>
      </trkpt>
      <trkpt lat="45.31528" lon="5.67892">
        <ele>1022.98</ele>
        <time>2013-02-14T10:21:34Z</time>
      </trkpt>
      <trkpt lat="45.31524" lon="5.67891">
        <ele>1024.42</ele>
        <time>2013-02-14T10:21:51Z</time>
      </trkpt>
      <trkpt lat="45.31526" lon="5.67896">
        <ele>1024.9</ele>
        <time>2013-02-14T10:22:15Z</time>
      </trkpt>
      <trkpt lat="45.31525" lon="5.67899">
        <ele>1026.83</ele>
        <time>2013-02-14T10:22:35Z</time>
      </trkpt>
      <trkpt lat="45.31527" lon="5.67899">
        <ele>1026.34</ele>
        <time>2013-02-14T10:23:06Z</time>
      </trkpt>
      <trkpt lat="45.31529" lon="5.67902">
        <ele>1029.23</ele>
        <time>2013-02-14T10:23:33Z</time>
      </trkpt>
      <trkpt lat="45.31528" lon="5.67907">
        <ele>1031.15</ele>
        <time>2013-02-14T10:23:58Z</time>
      </trkpt>
      <trkpt lat="45.31521" lon="5.6791">
        <ele>1032.11</ele>
        <time>2013-02-14T10:24:22Z</time>
      </trkpt>
      <trkpt lat="45.31519" lon="5.67913">
        <ele>1032.11</ele>
        <time>2013-02-14T10:25:51Z</time>
      </trkpt>
      <trkpt lat="45.31515" lon="5.67911">
        <ele>1032.11</ele>
        <time>2013-02-14T10:26:01Z</time>
      </trkpt>
      <trkpt lat="45.31511" lon="5.67901">
        <ele>1029.71</ele>
        <time>2013-02-14T10:26:09Z</time>
      </trkpt>
      <trkpt lat="45.31504" lon="5.67889">
        <ele>1026.34</ele>
        <time>2013-02-14T10:26:17Z</time>
      </trkpt>
      <trkpt lat="45.31504" lon="5.67881">
        <ele>1022.98</ele>
        <time>2013-02-14T10:26:24Z</time>
      </trkpt>
      <trkpt lat="45.31503" lon="5.67875">
        <ele>1020.1</ele>
        <time>2013-02-14T10:26:33Z</time>
      </trkpt>
      <trkpt lat="45.315" lon="5.67862">
        <ele>1016.73</ele>
        <time>2013-02-14T10:26:37Z</time>
      </trkpt>
      <trkpt lat="45.31498" lon="5.67863">
        <ele>1015.77</ele>
        <time>2013-02-14T10:26:38Z</time>
      </trkpt>
      <trkpt lat="45.315" lon="5.67862">
        <ele>1015.29</ele>
        <time>2013-02-14T10:26:40Z</time>
      </trkpt>
      <trkpt lat="45.31496" lon="5.67848">
        <ele>1011.93</ele>
        <time>2013-02-14T10:26:55Z</time>
      </trkpt>
      <trkpt lat="45.31495" lon="5.67837">
        <ele>1011.44</ele>
        <time>2013-02-14T10:27:13Z</time>
      </trkpt>
      <trkpt lat="45.31487" lon="5.6783">
        <ele>1012.41</ele>
        <time>2013-02-14T10:27:30Z</time>
      </trkpt>
      <trkpt lat="45.31481" lon="5.67821">
        <ele>1013.85</ele>
        <time>2013-02-14T10:27:48Z</time>
      </trkpt>
      <trkpt lat="45.31473" lon="5.67814">
        <ele>1013.85</ele>
        <time>2013-02-14T10:28:03Z</time>
      </trkpt>
      <trkpt lat="45.3147" lon="5.67802">
        <ele>1012.89</ele>
        <time>2013-02-14T10:28:23Z</time>
      </trkpt>
      <trkpt lat="45.31466" lon="5.67789">
        <ele>1013.85</ele>
        <time>2013-02-14T10:28:41Z</time>
      </trkpt>
      <trkpt lat="45.31453" lon="5.67781">
        <ele>1012.89</ele>
        <time>2013-02-14T10:29:03Z</time>
      </trkpt>
      <trkpt lat="45.31456" lon="5.67767">
        <ele>1011.44</ele>
        <time>2013-02-14T10:29:20Z</time>
      </trkpt>
      <trkpt lat="45.31452" lon="5.6776">
        <ele>1010.96</ele>
        <time>2013-02-14T10:29:39Z</time>
      </trkpt>
      <trkpt lat="45.31447" lon="5.67754">
        <ele>1011.44</ele>
        <time>2013-02-14T10:29:55Z</time>
      </trkpt>
      <trkpt lat="45.3144" lon="5.67743">
        <ele>1013.37</ele>
        <time>2013-02-14T10:30:18Z</time>
      </trkpt>
      <trkpt lat="45.31431" lon="5.67741">
        <ele>1013.85</ele>
        <time>2013-02-14T10:30:38Z</time>
      </trkpt>
      <trkpt lat="45.31423" lon="5.67734">
        <ele>1013.85</ele>
        <time>2013-02-14T10:30:50Z</time>
      </trkpt>
      <trkpt lat="45.31417" lon="5.67722">
        <ele>1012.89</ele>
        <time>2013-02-14T10:31:12Z</time>
      </trkpt>
      <trkpt lat="45.31409" lon="5.67711">
        <ele>1014.81</ele>
        <time>2013-02-14T10:31:35Z</time>
      </trkpt>
      <trkpt lat="45.31411" lon="5.67712">
        <ele>1015.29</ele>
        <time>2013-02-14T10:31:55Z</time>
      </trkpt>
      <trkpt lat="45.31416" lon="5.6771">
        <ele>1016.73</ele>
        <time>2013-02-14T10:32:20Z</time>
      </trkpt>
      <trkpt lat="45.31428" lon="5.67706">
        <ele>1018.65</ele>
        <time>2013-02-14T10:33:01Z</time>
      </trkpt>
      <trkpt lat="45.31426" lon="5.67711">
        <ele>1021.54</ele>
        <time>2013-02-14T10:34:24Z</time>
      </trkpt>
      <trkpt lat="45.31419" lon="5.67711">
        <ele>1023.46</ele>
        <time>2013-02-14T10:34:58Z</time>
      </trkpt>
      <trkpt lat="45.31416" lon="5.67719">
        <ele>1025.38</ele>
        <time>2013-02-14T10:35:14Z</time>
      </trkpt>
      <trkpt lat="45.31416" lon="5.67725">
        <ele>1026.83</ele>
        <time>2013-02-14T10:35:35Z</time>
      </trkpt>
      <trkpt lat="45.31416" lon="5.67729">
        <ele>1028.27</ele>
        <time>2013-02-14T10:36:03Z</time>
      </trkpt>
      <trkpt lat="45.31414" lon="5.67718">
        <ele>1026.83</ele>
        <time>2013-02-14T10:36:37Z</time>
      </trkpt>
      <trkpt lat="45.31409" lon="5.6771">
        <ele>1027.79</ele>
        <time>2013-02-14T10:37:21Z</time>
      </trkpt>
      <trkpt lat="45.31403" lon="5.67711">
        <ele>1028.75</ele>
        <time>2013-02-14T10:37:36Z</time>
      </trkpt>
      <trkpt lat="45.31397" lon="5.67711">
        <ele>1030.19</ele>
        <time>2013-02-14T10:38:01Z</time>
      </trkpt>
      <trkpt lat="45.3139" lon="5.67708">
        <ele>1032.11</ele>
        <time>2013-02-14T10:38:22Z</time>
      </trkpt>
      <trkpt lat="45.31385" lon="5.67705">
        <ele>1032.59</ele>
        <time>2013-02-14T10:38:42Z</time>
      </trkpt>
      <trkpt lat="45.3138" lon="5.67701">
        <ele>1035</ele>
        <time>2013-02-14T10:39:23Z</time>
      </trkpt>
      <trkpt lat="45.31376" lon="5.67699">
        <ele>1035</ele>
        <time>2013-02-14T10:39:44Z</time>
      </trkpt>
      <trkpt lat="45.31371" lon="5.67695">
        <ele>1036.44</ele>
        <time>2013-02-14T10:39:59Z</time>
      </trkpt>
      <trkpt lat="45.31369" lon="5.67692">
        <ele>1038.84</ele>
        <time>2013-02-14T10:40:35Z</time>
      </trkpt>
      <trkpt lat="45.31366" lon="5.67694">
        <ele>1040.76</ele>
        <time>2013-02-14T10:41:33Z</time>
      </trkpt>
      <trkpt lat="45.31361" lon="5.67701">
        <ele>1043.65</ele>
        <time>2013-02-14T10:41:49Z</time>
      </trkpt>
      <trkpt lat="45.31357" lon="5.67703">
        <ele>1046.05</ele>
        <time>2013-02-14T10:42:07Z</time>
      </trkpt>
      <trkpt lat="45.31355" lon="5.67703">
        <ele>1047.49</ele>
        <time>2013-02-14T10:42:24Z</time>
      </trkpt>
      <trkpt lat="45.31353" lon="5.67706">
        <ele>1049.42</ele>
        <time>2013-02-14T10:42:39Z</time>
      </trkpt>
      <trkpt lat="45.31349" lon="5.67711">
        <ele>1051.82</ele>
        <time>2013-02-14T10:43:11Z</time>
      </trkpt>
      <trkpt lat="45.31346" lon="5.67712">
        <ele>1054.22</ele>
        <time>2013-02-14T10:43:30Z</time>
      </trkpt>
      <trkpt lat="45.31344" lon="5.67715">
        <ele>1055.67</ele>
        <time>2013-02-14T10:44:07Z</time>
      </trkpt>
      <trkpt lat="45.31343" lon="5.67717">
        <ele>1056.63</ele>
        <time>2013-02-14T10:44:35Z</time>
      </trkpt>
      <trkpt lat="45.31341" lon="5.67715">
        <ele>1058.07</ele>
        <time>2013-02-14T10:45:04Z</time>
      </trkpt>
      <trkpt lat="45.31339" lon="5.67716">
        <ele>1059.03</ele>
        <time>2013-02-14T10:45:20Z</time>
      </trkpt>
      <trkpt lat="45.3134" lon="5.67717">
        <ele>1058.55</ele>
        <time>2013-02-14T10:46:19Z</time>
      </trkpt>
      <trkpt lat="45.3134" lon="5.67721">
        <ele>1059.51</ele>
        <time>2013-02-14T10:50:35Z</time>
      </trkpt>
      <trkpt lat="45.31339" lon="5.67727">
        <ele>1059.03</ele>
        <time>2013-02-14T10:51:23Z</time>
      </trkpt>
      <trkpt lat="45.31345" lon="5.67721">
        <ele>1061.43</ele>
        <time>2013-02-14T10:52:11Z</time>
      </trkpt>
      <trkpt lat="45.31342" lon="5.67725">
        <ele>1064.32</ele>
        <time>2013-02-14T10:52:37Z</time>
      </trkpt>
      <trkpt lat="45.31341" lon="5.67728">
        <ele>1066.24</ele>
        <time>2013-02-14T10:53:01Z</time>
      </trkpt>
      <trkpt lat="45.31341" lon="5.67729">
        <ele>1069.12</ele>
        <time>2013-02-14T10:53:41Z</time>
      </trkpt>
      <trkpt lat="45.31342" lon="5.67734">
        <ele>1072.01</ele>
        <time>2013-02-14T10:56:14Z</time>
      </trkpt>
      <trkpt lat="45.31335" lon="5.67726">
        <ele>1074.89</ele>
        <time>2013-02-14T10:57:43Z</time>
      </trkpt>
      <trkpt lat="45.31329" lon="5.67723">
        <ele>1076.33</ele>
        <time>2013-02-14T10:58:08Z</time>
      </trkpt>
      <trkpt lat="45.31339" lon="5.67745">
        <ele>1079.22</ele>
        <time>2013-02-14T10:59:39Z</time>
      </trkpt>
      <trkpt lat="45.31336" lon="5.67747">
        <ele>1081.14</ele>
        <time>2013-02-14T11:00:08Z</time>
      </trkpt>
      <trkpt lat="45.31337" lon="5.67745">
        <ele>1082.58</ele>
        <time>2013-02-14T11:00:29Z</time>
      </trkpt>
      <trkpt lat="45.3133" lon="5.6774">
        <ele>1083.54</ele>
        <time>2013-02-14T11:00:52Z</time>
      </trkpt>
      <trkpt lat="45.31331" lon="5.67743">
        <ele>1084.99</ele>
        <time>2013-02-14T11:01:08Z</time>
      </trkpt>
      <trkpt lat="45.31336" lon="5.67755">
        <ele>1087.87</ele>
        <time>2013-02-14T11:01:32Z</time>
      </trkpt>
      <trkpt lat="45.31328" lon="5.67753">
        <ele>1089.79</ele>
        <time>2013-02-14T11:02:04Z</time>
      </trkpt>
      <trkpt lat="45.31333" lon="5.67762">
        <ele>1091.71</ele>
        <time>2013-02-14T11:02:23Z</time>
      </trkpt>
      <trkpt lat="45.31331" lon="5.67764">
        <ele>1093.16</ele>
        <time>2013-02-14T11:02:41Z</time>
      </trkpt>
      <trkpt lat="45.31329" lon="5.67756">
        <ele>1093.16</ele>
        <time>2013-02-14T11:03:02Z</time>
      </trkpt>
      <trkpt lat="45.31329" lon="5.67763">
        <ele>1092.68</ele>
        <time>2013-02-14T11:03:27Z</time>
      </trkpt>
      <trkpt lat="45.31333" lon="5.6777">
        <ele>1096.04</ele>
        <time>2013-02-14T11:04:19Z</time>
      </trkpt>
      <trkpt lat="45.31343" lon="5.67786">
        <ele>1098.92</ele>
        <time>2013-02-14T11:04:50Z</time>
      </trkpt>
      <trkpt lat="45.31338" lon="5.67786">
        <ele>1101.81</ele>
        <time>2013-02-14T11:05:17Z</time>
      </trkpt>
      <trkpt lat="45.31341" lon="5.67794">
        <ele>1105.17</ele>
        <time>2013-02-14T11:05:52Z</time>
      </trkpt>
      <trkpt lat="45.31315" lon="5.6777">
        <ele>1108.06</ele>
        <time>2013-02-14T11:06:19Z</time>
      </trkpt>
      <trkpt lat="45.313" lon="5.67764">
        <ele>1111.42</ele>
        <time>2013-02-14T11:06:44Z</time>
      </trkpt>
      <trkpt lat="45.31289" lon="5.6777">
        <ele>1114.31</ele>
        <time>2013-02-14T11:07:07Z</time>
      </trkpt>
      <trkpt lat="45.31311" lon="5.67809">
        <ele>1115.27</ele>
        <time>2013-02-14T11:07:43Z</time>
      </trkpt>
      <trkpt lat="45.31288" lon="5.67792">
        <ele>1117.19</ele>
        <time>2013-02-14T11:08:11Z</time>
      </trkpt>
      <trkpt lat="45.3128" lon="5.67786">
        <ele>1120.07</ele>
        <time>2013-02-14T11:08:32Z</time>
      </trkpt>
      <trkpt lat="45.31274" lon="5.67785">
        <ele>1123.44</ele>
        <time>2013-02-14T11:09:15Z</time>
      </trkpt>
      <trkpt lat="45.31271" lon="5.67791">
        <ele>1123.92</ele>
        <time>2013-02-14T11:09:35Z</time>
      </trkpt>
      <trkpt lat="45.31271" lon="5.67792">
        <ele>1123.92</ele>
        <time>2013-02-14T11:09:55Z</time>
      </trkpt>
      <trkpt lat="45.31255" lon="5.67805">
        <ele>1123.92</ele>
        <time>2013-02-14T11:10:19Z</time>
      </trkpt>
      <trkpt lat="45.31254" lon="5.67807">
        <ele>1123.92</ele>
        <time>2013-02-14T11:10:21Z</time>
      </trkpt>
      <trkpt lat="45.31251" lon="5.67785">
        <ele>1123.92</ele>
        <time>2013-02-14T11:10:46Z</time>
      </trkpt>
      <trkpt lat="45.31257" lon="5.6779">
        <ele>1124.88</ele>
        <time>2013-02-14T11:11:07Z</time>
      </trkpt>
      <trkpt lat="45.31257" lon="5.67786">
        <ele>1126.8</ele>
        <time>2013-02-14T11:11:22Z</time>
      </trkpt>
      <trkpt lat="45.31248" lon="5.67781">
        <ele>1128.24</ele>
        <time>2013-02-14T11:11:43Z</time>
      </trkpt>
      <trkpt lat="45.31254" lon="5.67777">
        <ele>1131.13</ele>
        <time>2013-02-14T11:12:10Z</time>
      </trkpt>
      <trkpt lat="45.31259" lon="5.67766">
        <ele>1131.61</ele>
        <time>2013-02-14T11:12:53Z</time>
      </trkpt>
      <trkpt lat="45.3126" lon="5.67772">
        <ele>1132.57</ele>
        <time>2013-02-14T11:13:24Z</time>
      </trkpt>
      <trkpt lat="45.31257" lon="5.67778">
        <ele>1134.01</ele>
        <time>2013-02-14T11:13:50Z</time>
      </trkpt>
      <trkpt lat="45.31258" lon="5.67781">
        <ele>1134.97</ele>
        <time>2013-02-14T11:14:35Z</time>
      </trkpt>
      <trkpt lat="45.31275" lon="5.67774">
        <ele>1135.45</ele>
        <time>2013-02-14T11:15:06Z</time>
      </trkpt>
      <trkpt lat="45.31267" lon="5.67755">
        <ele>1138.82</ele>
        <time>2013-02-14T11:16:00Z</time>
      </trkpt>
      <trkpt lat="45.31266" lon="5.67755">
        <ele>1141.7</ele>
        <time>2013-02-14T11:16:36Z</time>
      </trkpt>
      <trkpt lat="45.31269" lon="5.67756">
        <ele>1144.59</ele>
        <time>2013-02-14T11:17:32Z</time>
      </trkpt>
      <trkpt lat="45.31266" lon="5.67745">
        <ele>1147.47</ele>
        <time>2013-02-14T11:18:52Z</time>
      </trkpt>
      <trkpt lat="45.31275" lon="5.67739">
        <ele>1150.84</ele>
        <time>2013-02-14T11:19:39Z</time>
      </trkpt>
      <trkpt lat="45.31257" lon="5.67742">
        <ele>1153.72</ele>
        <time>2013-02-14T11:20:20Z</time>
      </trkpt>
      <trkpt lat="45.3126" lon="5.67733">
        <ele>1156.6</ele>
        <time>2013-02-14T11:20:51Z</time>
      </trkpt>
      <trkpt lat="45.31266" lon="5.67728">
        <ele>1157.08</ele>
        <time>2013-02-14T11:21:18Z</time>
      </trkpt>
      <trkpt lat="45.31261" lon="5.6773">
        <ele>1159.01</ele>
        <time>2013-02-14T11:21:44Z</time>
      </trkpt>
      <trkpt lat="45.31265" lon="5.67729">
        <ele>1161.89</ele>
        <time>2013-02-14T11:22:24Z</time>
      </trkpt>
      <trkpt lat="45.31266" lon="5.67729">
        <ele>1165.26</ele>
        <time>2013-02-14T11:23:00Z</time>
      </trkpt>
      <trkpt lat="45.31259" lon="5.67734">
        <ele>1167.66</ele>
        <time>2013-02-14T11:23:19Z</time>
      </trkpt>
      <trkpt lat="45.31257" lon="5.67733">
        <ele>1170.54</ele>
        <time>2013-02-14T11:23:49Z</time>
      </trkpt>
      <trkpt lat="45.31254" lon="5.67735">
        <ele>1173.91</ele>
        <time>2013-02-14T11:24:14Z</time>
      </trkpt>
      <trkpt lat="45.31254" lon="5.67731">
        <ele>1176.79</ele>
        <time>2013-02-14T11:24:54Z</time>
      </trkpt>
      <trkpt lat="45.31252" lon="5.67728">
        <ele>1179.67</ele>
        <time>2013-02-14T11:25:35Z</time>
      </trkpt>
      <trkpt lat="45.3125" lon="5.67727">
        <ele>1183.04</ele>
        <time>2013-02-14T11:26:10Z</time>
      </trkpt>
      <trkpt lat="45.31237" lon="5.67733">
        <ele>1184.48</ele>
        <time>2013-02-14T11:26:46Z</time>
      </trkpt>
      <trkpt lat="45.31232" lon="5.67743">
        <ele>1186.4</ele>
        <time>2013-02-14T11:27:23Z</time>
      </trkpt>
      <trkpt lat="45.31233" lon="5.67741">
        <ele>1189.29</ele>
        <time>2013-02-14T11:28:03Z</time>
      </trkpt>
      <trkpt lat="45.31222" lon="5.67753">
        <ele>1192.65</ele>
        <time>2013-02-14T11:29:00Z</time>
      </trkpt>
      <trkpt lat="45.31213" lon="5.67754">
        <ele>1195.54</ele>
        <time>2013-02-14T11:29:34Z</time>
      </trkpt>
      <trkpt lat="45.31215" lon="5.67753">
        <ele>1198.9</ele>
        <time>2013-02-14T11:30:00Z</time>
      </trkpt>
      <trkpt lat="45.31208" lon="5.67762">
        <ele>1200.34</ele>
        <time>2013-02-14T11:31:08Z</time>
      </trkpt>
      <trkpt lat="45.31218" lon="5.67743">
        <ele>1200.34</ele>
        <time>2013-02-14T11:31:29Z</time>
      </trkpt>
      <trkpt lat="45.31213" lon="5.67749">
        <ele>1203.71</ele>
        <time>2013-02-14T11:32:39Z</time>
      </trkpt>
      <trkpt lat="45.312" lon="5.67756">
        <ele>1206.59</ele>
        <time>2013-02-14T11:33:19Z</time>
      </trkpt>
      <trkpt lat="45.31194" lon="5.67765">
        <ele>1209.48</ele>
        <time>2013-02-14T11:34:12Z</time>
      </trkpt>
      <trkpt lat="45.31207" lon="5.67767">
        <ele>1211.88</ele>
        <time>2013-02-14T11:34:37Z</time>
      </trkpt>
      <trkpt lat="45.3121" lon="5.67759">
        <ele>1213.8</ele>
        <time>2013-02-14T11:35:09Z</time>
      </trkpt>
      <trkpt lat="45.31216" lon="5.67752">
        <ele>1215.24</ele>
        <time>2013-02-14T11:36:44Z</time>
      </trkpt>
      <trkpt lat="45.31212" lon="5.67743">
        <ele>1216.69</ele>
        <time>2013-02-14T11:37:03Z</time>
      </trkpt>
      <trkpt lat="45.31214" lon="5.67742">
        <ele>1219.57</ele>
        <time>2013-02-14T11:37:31Z</time>
      </trkpt>
      <trkpt lat="45.31211" lon="5.67742">
        <ele>1222.93</ele>
        <time>2013-02-14T11:38:07Z</time>
      </trkpt>
      <trkpt lat="45.31211" lon="5.67743">
        <ele>1225.82</ele>
        <time>2013-02-14T11:38:55Z</time>
      </trkpt>
      <trkpt lat="45.31206" lon="5.67745">
        <ele>1228.7</ele>
        <time>2013-02-14T11:39:33Z</time>
      </trkpt>
      <trkpt lat="45.31203" lon="5.67748">
        <ele>1232.07</ele>
        <time>2013-02-14T11:40:10Z</time>
      </trkpt>
      <trkpt lat="45.31196" lon="5.67753">
        <ele>1234.95</ele>
        <time>2013-02-14T11:41:01Z</time>
      </trkpt>
      <trkpt lat="45.31192" lon="5.67751">
        <ele>1238.32</ele>
        <time>2013-02-14T11:41:48Z</time>
      </trkpt>
      <trkpt lat="45.31195" lon="5.6774">
        <ele>1238.32</ele>
        <time>2013-02-14T11:42:34Z</time>
      </trkpt>
      <trkpt lat="45.31193" lon="5.67735">
        <ele>1237.35</ele>
        <time>2013-02-14T11:42:52Z</time>
      </trkpt>
      <trkpt lat="45.31194" lon="5.67728">
        <ele>1237.83</ele>
        <time>2013-02-14T11:43:18Z</time>
      </trkpt>
      <trkpt lat="45.31191" lon="5.67724">
        <ele>1238.8</ele>
        <time>2013-02-14T11:43:34Z</time>
      </trkpt>
      <trkpt lat="45.31187" lon="5.67723">
        <ele>1240.24</ele>
        <time>2013-02-14T11:44:09Z</time>
      </trkpt>
      <trkpt lat="45.31193" lon="5.67714">
        <ele>1238.8</ele>
        <time>2013-02-14T11:46:00Z</time>
      </trkpt>
      <trkpt lat="45.31189" lon="5.6772">
        <ele>1239.76</ele>
        <time>2013-02-14T11:47:34Z</time>
      </trkpt>
      <trkpt lat="45.3118" lon="5.67725">
        <ele>1236.87</ele>
        <time>2013-02-14T11:48:46Z</time>
      </trkpt>
      <trkpt lat="45.3118" lon="5.67734">
        <ele>1239.28</ele>
        <time>2013-02-14T11:49:29Z</time>
      </trkpt>
      <trkpt lat="45.31178" lon="5.67741">
        <ele>1241.68</ele>
        <time>2013-02-14T11:50:25Z</time>
      </trkpt>
      <trkpt lat="45.31178" lon="5.67743">
        <ele>1244.56</ele>
        <time>2013-02-14T11:51:09Z</time>
      </trkpt>
      <trkpt lat="45.31175" lon="5.67747">
        <ele>1247.45</ele>
        <time>2013-02-14T11:51:47Z</time>
      </trkpt>
      <trkpt lat="45.31174" lon="5.67752">
        <ele>1248.41</ele>
        <time>2013-02-14T11:52:49Z</time>
      </trkpt>
      <trkpt lat="45.3117" lon="5.67754">
        <ele>1247.93</ele>
        <time>2013-02-14T11:53:08Z</time>
      </trkpt>
      <trkpt lat="45.31164" lon="5.67749">
        <ele>1246.49</ele>
        <time>2013-02-14T11:53:37Z</time>
      </trkpt>
      <trkpt lat="45.31163" lon="5.6775">
        <ele>1245.04</ele>
        <time>2013-02-14T11:54:16Z</time>
      </trkpt>
      <trkpt lat="45.3116" lon="5.67747">
        <ele>1243.6</ele>
        <time>2013-02-14T11:56:05Z</time>
      </trkpt>
      <trkpt lat="45.31156" lon="5.67754">
        <ele>1245.04</ele>
        <time>2013-02-14T11:56:36Z</time>
      </trkpt>
      <trkpt lat="45.31157" lon="5.67759">
        <ele>1247.93</ele>
        <time>2013-02-14T11:57:30Z</time>
      </trkpt>
      <trkpt lat="45.31157" lon="5.67758">
        <ele>1249.37</ele>
        <time>2013-02-14T11:58:41Z</time>
      </trkpt>
      <trkpt lat="45.31156" lon="5.67767">
        <ele>1248.89</ele>
        <time>2013-02-14T11:59:33Z</time>
      </trkpt>
      <trkpt lat="45.31147" lon="5.67763">
        <ele>1246.01</ele>
        <time>2013-02-14T12:00:26Z</time>
      </trkpt>
      <trkpt lat="45.31144" lon="5.67759">
        <ele>1243.12</ele>
        <time>2013-02-14T12:00:43Z</time>
      </trkpt>
      <trkpt lat="45.31143" lon="5.67756">
        <ele>1239.76</ele>
        <time>2013-02-14T12:01:06Z</time>
      </trkpt>
      <trkpt lat="45.31141" lon="5.67764">
        <ele>1238.8</ele>
        <time>2013-02-14T12:03:33Z</time>
      </trkpt>
      <trkpt lat="45.31141" lon="5.67757">
        <ele>1237.35</ele>
        <time>2013-02-14T12:07:18Z</time>
      </trkpt>
      <trkpt lat="45.31139" lon="5.67755">
        <ele>1237.35</ele>
        <time>2013-02-14T12:08:27Z</time>
      </trkpt>
      <trkpt lat="45.31135" lon="5.6775">
        <ele>1238.8</ele>
        <time>2013-02-14T12:09:00Z</time>
      </trkpt>
      <trkpt lat="45.31131" lon="5.67749">
        <ele>1240.24</ele>
        <time>2013-02-14T12:09:35Z</time>
      </trkpt>
      <trkpt lat="45.31129" lon="5.67745">
        <ele>1240.24</ele>
        <time>2013-02-14T12:09:52Z</time>
      </trkpt>
      <trkpt lat="45.31125" lon="5.67742">
        <ele>1241.68</ele>
        <time>2013-02-14T12:10:27Z</time>
      </trkpt>
      <trkpt lat="45.31127" lon="5.67744">
        <ele>1242.16</ele>
        <time>2013-02-14T12:11:01Z</time>
      </trkpt>
      <trkpt lat="45.31127" lon="5.67741">
        <ele>1242.64</ele>
        <time>2013-02-14T12:11:23Z</time>
      </trkpt>
      <trkpt lat="45.31123" lon="5.67743">
        <ele>1243.12</ele>
        <time>2013-02-14T12:11:42Z</time>
      </trkpt>
      <trkpt lat="45.31123" lon="5.67743">
        <ele>1243.12</ele>
        <time>2013-02-14T12:12:25Z</time>
      </trkpt>
      <trkpt lat="45.31119" lon="5.6774">
        <ele>1243.6</ele>
        <time>2013-02-14T12:12:52Z</time>
      </trkpt>
      <trkpt lat="45.31125" lon="5.67742">
        <ele>1243.6</ele>
        <time>2013-02-14T12:14:09Z</time>
      </trkpt>
      <trkpt lat="45.31126" lon="5.67742">
        <ele>1244.08</ele>
        <time>2013-02-14T12:14:37Z</time>
      </trkpt>
      <trkpt lat="45.31127" lon="5.67741">
        <ele>1245.04</ele>
        <time>2013-02-14T12:15:46Z</time>
      </trkpt>
      <trkpt lat="45.31125" lon="5.67743">
        <ele>1245.53</ele>
        <time>2013-02-14T12:16:16Z</time>
      </trkpt>
      <trkpt lat="45.31126" lon="5.67743">
        <ele>1243.6</ele>
        <time>2013-02-14T12:16:52Z</time>
      </trkpt>
      <trkpt lat="45.31126" lon="5.67743">
        <ele>1245.04</ele>
        <time>2013-02-14T12:16:54Z</time>
      </trkpt>
      <trkpt lat="45.31129" lon="5.67743">
        <ele>1245.04</ele>
        <time>2013-02-14T12:17:13Z</time>
      </trkpt>
      <trkpt lat="45.31125" lon="5.6774">
        <ele>1244.56</ele>
        <time>2013-02-14T12:18:10Z</time>
      </trkpt>
      <trkpt lat="45.31115" lon="5.6774">
        <ele>1247.45</ele>
        <time>2013-02-14T12:19:44Z</time>
      </trkpt>
      <trkpt lat="45.31114" lon="5.67737">
        <ele>1249.37</ele>
        <time>2013-02-14T12:20:03Z</time>
      </trkpt>
      <trkpt lat="45.3111" lon="5.67735">
        <ele>1251.77</ele>
        <time>2013-02-14T12:20:33Z</time>
      </trkpt>
      <trkpt lat="45.31107" lon="5.67739">
        <ele>1254.66</ele>
        <time>2013-02-14T12:21:41Z</time>
      </trkpt>
      <trkpt lat="45.31103" lon="5.67739">
        <ele>1251.29</ele>
        <time>2013-02-14T12:25:35Z</time>
      </trkpt>
      <trkpt lat="45.31101" lon="5.67736">
        <ele>1253.7</ele>
        <time>2013-02-14T12:29:51Z</time>
      </trkpt>
      <trkpt lat="45.31105" lon="5.6774">
        <ele>1256.58</ele>
        <time>2013-02-14T12:35:29Z</time>
      </trkpt>
    </trkseg>
  </trk>
</gpx>